createdAt,value
2022-10-20T00:00:55.856Z,99525.19
2022-10-20T00:02:04.761Z,99523.59
2022-10-20T00:03:35.176Z,99530.34
2022-10-20T00:04:50.247Z,99526.00
2022-10-20T00:09:54.601Z,99530.69
2022-10-20T00:11:07.884Z,99536.28
2022-10-20T00:12:12.349Z,99535.81
2022-10-20T00:13:22.695Z,99535.47
2022-10-20T00:14:44.056Z,99535.50
2022-10-20T00:16:12.233Z,99548.38
2022-10-20T00:17:29.427Z,99539.72
2022-10-20T00:18:38.905Z,99542.81
2022-10-20T00:19:53.425Z,99547.97
2022-10-20T00:21:11.019Z,99553.47
2022-10-20T00:24:03.014Z,99543.28
2022-10-20T00:25:16.134Z,99553.53
2022-10-20T00:26:41.324Z,99555.03
2022-10-20T00:27:51.661Z,99555.47
2022-10-20T00:30:47.656Z,99562.13
2022-10-20T00:31:53.809Z,99553.88
2022-10-20T00:33:12.807Z,99564.47
2022-10-20T00:34:32.179Z,99566.19
2022-10-20T00:35:40.514Z,99569.34
2022-10-20T00:36:50.417Z,99569.31
2022-10-20T00:38:01.513Z,99565.31
2022-10-20T00:39:10.952Z,99572.81
2022-10-20T00:40:16.919Z,99574.81
2022-10-20T00:41:27.835Z,99575.34
2022-10-20T00:42:35.509Z,99574.88
2022-10-20T00:43:57.093Z,99565.75
2022-10-20T00:45:05.483Z,99578.72
2022-10-20T00:49:26.037Z,99588.69
2022-10-20T00:50:44.090Z,99587.41
2022-10-20T00:52:06.233Z,99586.25
2022-10-20T00:53:11.250Z,99578.09
2022-10-20T00:54:22.792Z,99589.94
2022-10-20T00:55:34.657Z,99582.09
2022-10-20T00:56:48.768Z,99590.66
2022-10-20T00:57:54.049Z,99586.66
2022-10-20T00:58:59.521Z,99588.19
2022-10-20T01:00:13.374Z,99593.81
2022-10-20T01:01:28.501Z,99590.50
2022-10-20T01:03:55.286Z,99596.41
2022-10-20T01:05:01.818Z,99602.69
2022-10-20T01:06:10.560Z,99601.91
2022-10-20T01:07:19.966Z,99595.25
2022-10-20T01:08:22.618Z,99600.31
2022-10-20T01:09:28.140Z,99600.25
2022-10-20T01:10:57.386Z,99601.81
2022-10-20T01:12:09.497Z,99605.47
2022-10-20T01:17:15.632Z,99609.00
2022-10-20T01:19:00.152Z,99607.06
2022-10-20T01:21:14.817Z,99607.94
2022-10-20T01:22:32.484Z,99610.19
2022-10-20T01:24:24.519Z,99612.69
2022-10-20T01:25:57.292Z,99611.94
2022-10-20T01:27:49.078Z,99621.28
2022-10-20T01:29:11.517Z,99614.53
2022-10-20T01:33:06.570Z,99625.72
2022-10-20T01:34:29.980Z,99628.03
2022-10-20T01:35:54.639Z,99626.09
2022-10-20T01:37:19.768Z,99634.72
2022-10-20T01:39:28.797Z,99631.16
2022-10-20T01:44:32.992Z,99627.75
2022-10-20T01:49:41.360Z,99632.16
2022-10-20T01:52:39.360Z,99646.94
2022-10-20T01:54:07.630Z,99644.59
2022-10-20T01:57:06.287Z,99654.06
2022-10-20T01:58:16.087Z,99652.56
2022-10-20T02:00:27.158Z,99661.13
2022-10-20T02:01:50.802Z,99661.06
2022-10-20T02:03:40.185Z,99664.63
2022-10-20T02:05:10.952Z,99671.28
2022-10-20T02:06:53.377Z,99668.47
2022-10-20T02:08:40.484Z,99666.50
2022-10-20T02:11:05.320Z,99667.38
2022-10-20T02:12:46.801Z,99670.50
2022-10-20T02:14:19.687Z,99675.53
2022-10-20T02:15:31.803Z,99671.06
2022-10-20T02:17:01.394Z,99679.75
2022-10-20T02:18:22.714Z,99679.75
2022-10-20T02:19:44.203Z,99674.69
2022-10-20T02:20:57.403Z,99671.94
2022-10-20T02:22:26.623Z,99679.00
2022-10-20T02:23:37.590Z,99687.69
2022-10-20T02:24:44.579Z,99687.84
2022-10-20T02:25:56.697Z,99694.16
2022-10-20T02:27:24.997Z,99690.88
2022-10-20T02:28:40.464Z,99694.78
2022-10-20T02:29:52.450Z,99693.09
2022-10-20T02:30:58.330Z,99691.50
2022-10-20T02:32:03.558Z,99690.34
2022-10-20T02:33:08.341Z,99686.81
2022-10-20T02:34:12.927Z,99699.84
2022-10-20T02:35:21.406Z,99691.50
2022-10-20T02:36:29.969Z,99692.75
2022-10-20T02:37:32.557Z,99700.94
2022-10-20T02:38:38.830Z,99692.34
2022-10-20T02:39:41.972Z,99698.63
2022-10-20T02:40:48.859Z,99690.78
2022-10-20T02:41:56.743Z,99696.38
2022-10-20T02:43:11.327Z,99700.28
2022-10-20T02:44:14.479Z,99699.13
2022-10-20T02:45:19.489Z,99710.53
2022-10-20T02:46:25.857Z,99704.31
2022-10-20T02:47:35.087Z,99707.38
2022-10-20T02:48:47.056Z,99705.41
2022-10-20T02:49:50.903Z,99705.91
2022-10-20T02:50:57.607Z,99701.63
2022-10-20T02:52:03.399Z,99706.34
2022-10-20T02:53:07.156Z,99709.09
2022-10-20T02:54:14.854Z,99705.22
2022-10-20T02:55:20.390Z,99708.28
2022-10-20T02:56:31.111Z,99712.25
2022-10-20T02:57:41.894Z,99714.94
2022-10-20T02:58:48.618Z,99706.75
2022-10-20T02:59:53.486Z,99717.28
2022-10-20T03:01:03.111Z,99715.66
2022-10-20T03:02:21.425Z,99717.63
2022-10-20T03:03:29.410Z,99725.53
2022-10-20T03:04:33.274Z,99725.91
2022-10-20T03:05:45.020Z,99726.34
2022-10-20T03:06:49.961Z,99726.34
2022-10-20T03:07:55.494Z,99724.78
2022-10-20T03:08:59.243Z,99730.28
2022-10-20T03:10:05.269Z,99727.16
2022-10-20T03:11:10.976Z,99727.91
2022-10-20T03:12:15.190Z,99730.69
2022-10-20T03:13:19.390Z,99729.09
2022-10-20T03:14:24.361Z,99735.06
2022-10-20T03:15:43.310Z,99740.53
2022-10-20T03:16:47.454Z,99737.34
2022-10-20T03:17:49.902Z,99743.28
2022-10-20T03:18:52.232Z,99738.06
2022-10-20T03:19:58.393Z,99744.38
2022-10-20T03:21:06.244Z,99745.91
2022-10-20T03:22:26.210Z,99756.16
2022-10-20T03:23:28.484Z,99753.63
2022-10-20T03:24:35.019Z,99751.34
2022-10-20T03:25:49.509Z,99752.09
2022-10-20T03:27:00.863Z,99750.88
2022-10-20T03:28:04.964Z,99755.22
2022-10-20T03:29:09.144Z,99751.34
2022-10-20T03:30:28.296Z,99758.41
2022-10-20T03:31:38.810Z,99754.44
2022-10-20T03:32:44.334Z,99760.06
2022-10-20T03:35:15.545Z,99756.81
2022-10-20T03:36:26.963Z,99756.69
2022-10-20T03:37:30.239Z,99765.59
2022-10-20T03:38:36.916Z,99760.19
2022-10-20T03:39:39.846Z,99766.09
2022-10-20T03:40:50.198Z,99768.44
2022-10-20T03:41:56.775Z,99768.31
2022-10-20T03:44:27.390Z,99772.34
2022-10-20T03:45:34.029Z,99780.47
2022-10-20T03:47:56.057Z,99777.59
2022-10-20T03:49:08.973Z,99777.72
2022-10-20T03:50:22.597Z,99773.88
2022-10-20T03:51:37.036Z,99780.78
2022-10-20T03:53:06.962Z,99787.84
2022-10-20T03:54:13.407Z,99789.31
2022-10-20T03:56:41.979Z,99787.75
2022-10-20T03:57:49.292Z,99795.69
2022-10-20T04:00:25.598Z,99794.53
2022-10-20T04:01:48.960Z,99797.69
2022-10-20T04:03:06.364Z,99799.84
2022-10-20T04:04:14.327Z,99799.72
2022-10-20T04:05:28.570Z,99799.34
2022-10-20T04:06:33.839Z,99798.56
2022-10-20T04:07:43.391Z,99797.03
2022-10-20T04:09:01.944Z,99802.94
2022-10-20T04:11:46.075Z,99809.81
2022-10-20T04:12:53.577Z,99807.09
2022-10-20T04:14:00.233Z,99817.97
2022-10-20T04:15:12.816Z,99812.06
2022-10-20T04:16:43.855Z,99822.31
2022-10-20T04:17:51.484Z,99822.31
2022-10-20T04:19:02.115Z,99817.69
2022-10-20T04:20:11.342Z,99819.94
2022-10-20T04:21:15.297Z,99821.47
2022-10-20T04:22:19.741Z,99830.16
2022-10-20T04:23:28.725Z,99829.56
2022-10-20T04:24:33.300Z,99830.16
2022-10-20T04:25:40.831Z,99830.88
2022-10-20T04:26:47.838Z,99822.31
2022-10-20T04:28:03.337Z,99818.53
2022-10-20T04:29:08.534Z,99826.53
2022-10-20T04:30:11.769Z,99831.75
2022-10-20T04:31:38.129Z,99834.91
2022-10-20T04:32:41.773Z,99836.06
2022-10-20T04:33:44.210Z,99841.72
2022-10-20T04:34:48.622Z,99840.41
2022-10-20T04:36:03.474Z,99836.72
2022-10-20T04:37:08.894Z,99845.34
2022-10-20T04:38:12.599Z,99843.00
2022-10-20T04:39:19.598Z,99839.03
2022-10-20T04:40:24.680Z,99841.53
2022-10-20T04:41:30.190Z,99844.09
2022-10-20T04:42:35.878Z,99845.81
2022-10-20T04:43:40.385Z,99848.50
2022-10-20T04:44:45.602Z,99851.25
2022-10-20T04:46:03.890Z,99845.59
2022-10-20T04:47:11.725Z,99848.72
2022-10-20T04:48:16.286Z,99849.25
2022-10-20T04:49:20.515Z,99852.47
2022-10-20T04:50:27.210Z,99851.84
2022-10-20T04:52:00.859Z,99859.72
2022-10-20T04:53:05.711Z,99859.88
2022-10-20T04:54:09.541Z,99855.31
2022-10-20T04:55:12.023Z,99863.13
2022-10-20T04:56:22.184Z,99862.69
2022-10-20T04:57:27.164Z,99851.56
2022-10-20T04:58:29.982Z,99865.16
2022-10-20T04:59:38.132Z,99866.31
2022-10-20T05:00:42.141Z,99870.31
2022-10-20T05:01:47.543Z,99866.84
2022-10-20T05:02:51.006Z,99868.88
2022-10-20T05:03:56.373Z,99879.06
2022-10-20T05:04:58.427Z,99876.00
2022-10-20T05:06:15.492Z,99865.16
2022-10-20T05:07:17.525Z,99870.44
2022-10-20T05:08:21.136Z,99874.31
2022-10-20T05:09:23.242Z,99874.03
2022-10-20T05:10:25.254Z,99869.50
2022-10-20T05:11:29.413Z,99875.75
2022-10-20T05:12:32.051Z,99878.91
2022-10-20T05:13:35.391Z,99874.03
2022-10-20T05:14:37.593Z,99879.88
2022-10-20T05:15:39.814Z,99883.28
2022-10-20T05:16:44.819Z,99891.44
2022-10-20T05:17:48.465Z,99885.31
2022-10-20T05:18:53.462Z,99886.63
2022-10-20T05:19:56.031Z,99888.22
2022-10-20T05:21:08.487Z,99892.25
2022-10-20T05:22:11.341Z,99881.91
2022-10-20T05:23:13.549Z,99890.72
2022-10-20T05:24:22.102Z,99887.47
2022-10-20T05:25:36.024Z,99895.28
2022-10-20T05:26:39.317Z,99897.38
2022-10-20T05:27:42.573Z,99896.88
2022-10-20T05:28:49.803Z,99897.47
2022-10-20T05:29:51.834Z,99893.41
2022-10-20T05:30:55.642Z,99904.72
2022-10-20T05:32:00.094Z,99906.88
2022-10-20T05:33:03.524Z,99914.34
2022-10-20T05:34:05.529Z,99907.56
2022-10-20T05:35:09.105Z,99909.63
2022-10-20T05:36:12.738Z,99916.66
2022-10-20T05:37:14.779Z,99917.00
2022-10-20T05:38:16.736Z,99919.88
2022-10-20T05:39:19.352Z,99918.16
2022-10-20T05:40:25.830Z,99909.16
2022-10-20T05:41:33.327Z,99918.88
2022-10-20T05:42:39.206Z,99921.56
2022-10-20T05:43:42.015Z,99920.63
2022-10-20T05:44:43.987Z,99923.81
2022-10-20T05:45:46.045Z,99922.63
2022-10-20T05:46:48.028Z,99922.28
2022-10-20T05:47:50.141Z,99927.72
2022-10-20T05:48:57.520Z,99928.56
2022-10-20T05:49:59.905Z,99932.91
2022-10-20T05:51:15.025Z,99934.97
2022-10-20T05:52:17.621Z,99931.53
2022-10-20T05:53:21.450Z,99923.66
2022-10-20T05:54:24.635Z,99930.75
2022-10-20T05:55:26.650Z,99939.28
2022-10-20T05:56:30.749Z,99935.22
2022-10-20T05:57:37.055Z,99935.66
2022-10-20T05:58:45.677Z,99940.88
2022-10-20T05:59:50.826Z,99939.28
2022-10-20T06:00:54.650Z,99943.78
2022-10-20T06:01:56.793Z,99941.63
2022-10-20T06:02:59.526Z,99943.69
2022-10-20T06:04:04.058Z,99946.38
2022-10-20T06:05:10.048Z,99955.94
2022-10-20T06:06:15.251Z,99949.78
2022-10-20T06:07:20.600Z,99953.91
2022-10-20T06:08:27.128Z,99947.84
2022-10-20T06:09:30.311Z,99949.78
2022-10-20T06:10:34.335Z,99949.72
2022-10-20T06:11:41.875Z,99951.44
2022-10-20T06:12:52.351Z,99950.13
2022-10-20T06:14:15.583Z,99952.47
2022-10-20T06:15:33.549Z,99951.88
2022-10-20T06:17:00.666Z,99951.00
2022-10-20T06:18:03.291Z,99957.44
2022-10-20T06:19:07.991Z,99952.78
2022-10-20T06:20:26.085Z,99950.53
2022-10-20T06:22:03.890Z,99947.75
2022-10-20T06:23:22.642Z,99950.56
2022-10-20T06:24:34.810Z,99954.72
2022-10-20T06:25:46.447Z,99953.97
2022-10-20T06:26:53.165Z,99953.59
2022-10-20T06:28:01.581Z,99954.31
2022-10-20T06:29:10.826Z,99962.31
2022-10-20T06:30:25.449Z,99955.63
2022-10-20T06:32:06.637Z,99952.53
2022-10-20T06:33:17.811Z,99946.72
2022-10-20T06:34:25.823Z,99953.56
2022-10-20T06:35:31.488Z,99958.50
2022-10-20T06:36:48.398Z,99961.25
2022-10-20T06:38:11.202Z,99950.94
2022-10-20T06:39:20.670Z,99962.25
2022-10-20T06:40:26.268Z,99960.53
2022-10-20T06:41:33.433Z,99965.59
2022-10-20T06:42:41.548Z,99957.09
2022-10-20T06:43:50.702Z,99960.38
2022-10-20T06:44:56.287Z,99967.28
2022-10-20T06:46:03.389Z,99956.88
2022-10-20T06:47:11.367Z,99965.88
2022-10-20T06:48:32.200Z,99955.84
2022-10-20T06:49:35.387Z,99958.97
2022-10-20T06:50:38.742Z,99968.00
2022-10-20T06:52:32.268Z,99963.13
2022-10-20T06:53:38.914Z,99966.84
2022-10-20T06:54:54.155Z,99955.84
2022-10-20T06:56:28.624Z,99956.22
2022-10-20T06:57:33.657Z,99962.44
2022-10-20T06:58:38.629Z,99973.53
2022-10-20T06:59:45.512Z,99969.25
2022-10-20T07:00:47.840Z,99966.09
2022-10-20T07:01:50.654Z,99960.25
2022-10-20T07:04:15.762Z,99970.19
2022-10-20T07:05:31.775Z,99964.78
2022-10-20T07:06:41.919Z,99969.25
2022-10-20T07:07:47.096Z,99964.94
2022-10-20T07:08:51.240Z,99971.13
2022-10-20T07:09:57.698Z,99970.28
2022-10-20T07:11:10.191Z,99971.75
2022-10-20T07:12:17.352Z,99968.88
2022-10-20T07:13:19.637Z,99965.81
2022-10-20T07:17:22.708Z,99970.91
2022-10-20T07:18:28.173Z,99964.66
2022-10-20T07:19:33.333Z,99973.19
2022-10-20T07:20:37.086Z,99971.56
2022-10-20T07:21:45.922Z,99972.66
2022-10-20T07:22:54.461Z,99965.41
2022-10-20T07:24:11.887Z,99967.66
2022-10-20T07:25:27.527Z,99968.47
2022-10-20T07:26:32.911Z,99978.50
2022-10-20T07:27:37.623Z,99982.25
2022-10-20T07:30:06.783Z,99980.81
2022-10-20T07:32:34.369Z,99981.69
2022-10-20T07:33:38.028Z,99977.72
2022-10-20T07:34:41.531Z,99979.31
2022-10-20T07:36:02.333Z,99977.72
2022-10-20T07:37:05.936Z,99983.16
2022-10-20T07:40:46.516Z,99989.75
2022-10-20T07:41:52.702Z,99992.53
2022-10-20T07:42:57.614Z,99990.91
2022-10-20T07:44:00.233Z,99979.03
2022-10-20T07:45:05.871Z,99982.94
2022-10-20T07:46:11.921Z,99983.78
2022-10-20T07:47:14.175Z,99982.91
2022-10-20T07:48:19.239Z,99970.78
2022-10-20T07:50:46.113Z,99978.72
2022-10-20T07:51:50.913Z,99977.16
2022-10-20T07:52:53.662Z,99972.34
2022-10-20T07:54:04.800Z,99978.03
2022-10-20T07:55:18.000Z,99983.63
2022-10-20T07:56:43.795Z,99975.78
2022-10-20T07:57:48.751Z,99974.09
2022-10-20T07:58:54.147Z,99980.03
2022-10-20T07:59:58.906Z,99983.72
2022-10-20T08:01:01.277Z,99978.75
2022-10-20T08:02:04.810Z,99982.16
2022-10-20T08:03:11.377Z,99974.97
2022-10-20T08:04:15.571Z,99974.56
2022-10-20T08:05:17.844Z,99978.66
2022-10-20T08:07:40.625Z,99974.06
2022-10-20T08:08:44.579Z,99971.84
2022-10-20T08:09:47.758Z,99983.41
2022-10-20T08:10:50.817Z,99986.94
2022-10-20T08:11:55.500Z,99985.72
2022-10-20T08:12:58.741Z,99971.91
2022-10-20T08:14:00.854Z,99984.59
2022-10-20T08:15:18.905Z,99988.88
2022-10-20T08:17:40.369Z,99990.50
2022-10-20T08:18:59.830Z,99984.13
2022-10-20T08:20:13.587Z,99990.06
2022-10-20T08:21:20.097Z,99993.31
2022-10-20T08:22:24.755Z,99986.78
2022-10-20T08:23:32.067Z,99989.47
2022-10-20T08:24:44.602Z,99994.66
2022-10-20T08:25:47.728Z,99992.59
2022-10-20T08:26:51.416Z,99983.91
2022-10-20T08:27:54.087Z,100005.34
2022-10-20T08:28:59.820Z,99992.47
2022-10-20T08:30:22.406Z,99989.44
2022-10-20T08:31:31.481Z,99989.81
2022-10-20T08:32:34.803Z,99996.34
2022-10-20T08:33:41.928Z,99990.78
2022-10-20T08:34:44.150Z,99996.28
2022-10-20T08:35:47.212Z,99997.91
2022-10-20T08:36:49.390Z,99988.72
2022-10-20T08:37:55.400Z,99992.09
2022-10-20T08:39:05.059Z,99993.06
2022-10-20T08:40:16.750Z,99996.09
2022-10-20T08:41:23.184Z,100001.78
2022-10-20T08:42:27.354Z,100003.88
2022-10-20T08:43:34.286Z,99996.94
2022-10-20T08:44:38.769Z,100009.19
2022-10-20T08:45:40.907Z,100006.94
2022-10-20T08:46:43.369Z,100001.31
2022-10-20T08:47:47.362Z,100001.59
2022-10-20T08:48:50.425Z,100004.69
2022-10-20T08:49:54.356Z,100007.06
2022-10-20T08:50:58.126Z,100009.63
2022-10-20T08:52:07.089Z,100007.38
2022-10-20T08:53:11.929Z,100012.91
2022-10-20T08:54:19.072Z,100024.00
2022-10-20T08:55:30.482Z,100009.81
2022-10-20T08:56:36.695Z,100012.72
2022-10-20T08:57:43.255Z,100015.41
2022-10-20T08:58:46.787Z,100016.56
2022-10-20T08:59:52.613Z,100015.28
2022-10-20T09:01:00.848Z,100023.31
2022-10-20T09:02:14.810Z,100013.94
2022-10-20T09:04:52.424Z,100022.69
2022-10-20T09:06:09.586Z,100029.63
2022-10-20T09:07:34.523Z,100020.53
2022-10-20T09:08:40.341Z,100023.78
2022-10-20T09:09:42.718Z,100029.47
2022-10-20T09:10:53.849Z,100034.41
2022-10-20T09:12:06.697Z,100029.69
2022-10-20T09:13:23.913Z,100033.03
2022-10-20T09:14:26.599Z,100026.09
2022-10-20T09:15:32.280Z,100035.50
2022-10-20T09:16:58.829Z,100029.44
2022-10-20T09:18:14.069Z,100031.38
2022-10-20T09:19:24.014Z,100034.34
2022-10-20T09:26:57.465Z,100039.19
2022-10-20T09:28:34.816Z,100042.00
2022-10-20T09:29:48.075Z,100035.19
2022-10-20T09:30:51.230Z,100042.53
2022-10-20T09:31:58.304Z,100044.38
2022-10-20T09:33:23.497Z,100044.84
2022-10-20T09:34:37.342Z,100041.66
2022-10-20T09:35:42.201Z,100040.63
2022-10-20T09:36:54.865Z,100040.84
2022-10-20T09:38:10.574Z,100042.69
2022-10-20T09:39:26.569Z,100039.56
2022-10-20T09:40:29.881Z,100038.38
2022-10-20T09:41:34.617Z,100041.06
2022-10-20T09:42:41.393Z,100039.41
2022-10-20T09:43:58.831Z,100030.31
2022-10-20T09:45:07.811Z,100032.97
2022-10-20T09:46:13.468Z,100039.31
2022-10-20T09:47:17.712Z,100031.72
2022-10-20T09:48:35.831Z,100039.94
2022-10-20T09:49:40.312Z,100032.31
2022-10-20T09:50:49.371Z,100036.78
2022-10-20T09:52:57.229Z,100037.31
2022-10-20T09:54:08.250Z,100036.31
2022-10-20T09:55:33.391Z,100042.63
2022-10-20T09:56:41.412Z,100043.16
2022-10-20T09:57:50.150Z,100042.84
2022-10-20T09:58:52.950Z,100045.69
2022-10-20T10:00:04.551Z,100052.19
2022-10-20T10:01:18.960Z,100038.47
2022-10-20T10:02:21.129Z,100046.50
2022-10-20T10:03:24.227Z,100047.09
2022-10-20T10:04:42.514Z,100044.00
2022-10-20T10:05:45.060Z,100047.19
2022-10-20T10:06:48.595Z,100052.25
2022-10-20T10:08:00.108Z,100041.94
2022-10-20T10:09:03.645Z,100050.06
2022-10-20T10:10:27.458Z,100051.81
2022-10-20T10:11:35.576Z,100048.03
2022-10-20T10:12:38.051Z,100046.75
2022-10-20T10:13:44.463Z,100047.28
2022-10-20T10:15:18.194Z,100048.03
2022-10-20T10:16:27.887Z,100044.69
2022-10-20T10:17:43.859Z,100040.72
2022-10-20T10:18:58.022Z,100050.91
2022-10-20T10:20:02.211Z,100051.75
2022-10-20T10:21:11.186Z,100047.47
2022-10-20T10:22:20.793Z,100049.25
2022-10-20T10:23:28.333Z,100047.81
2022-10-20T10:24:42.288Z,100050.16
2022-10-20T10:25:46.247Z,100048.41
2022-10-20T10:26:55.405Z,100050.25
2022-10-20T10:28:22.830Z,100052.69
2022-10-20T10:29:28.460Z,100043.66
2022-10-20T10:30:35.485Z,100046.31
2022-10-20T10:31:50.412Z,100051.03
2022-10-20T10:32:52.682Z,100045.66
2022-10-20T10:34:13.279Z,100048.94
2022-10-20T10:35:41.144Z,100046.47
2022-10-20T10:36:43.684Z,100049.22
2022-10-20T10:37:46.371Z,100050.09
2022-10-20T10:38:52.091Z,100044.03
2022-10-20T10:39:55.051Z,100042.44
2022-10-20T10:41:24.291Z,100047.44
2022-10-20T10:42:55.651Z,100048.47
2022-10-20T10:44:00.352Z,100041.75
2022-10-20T10:45:25.277Z,100044.75
2022-10-20T10:46:34.133Z,100043.22
2022-10-20T10:47:42.337Z,100047.06
2022-10-20T10:48:48.090Z,100051.63
2022-10-20T10:50:03.103Z,100043.97
2022-10-20T10:51:16.725Z,100048.53
2022-10-20T10:52:31.520Z,100055.94
2022-10-20T10:53:59.594Z,100048.09
2022-10-20T10:55:30.555Z,100044.06
2022-10-20T10:56:50.172Z,100045.03
2022-10-20T10:58:01.373Z,100043.59
2022-10-20T10:59:18.879Z,100039.78
2022-10-20T11:00:35.153Z,100038.69
2022-10-20T11:02:46.019Z,100053.97
2022-10-20T11:04:08.068Z,100053.69
2022-10-20T11:05:51.920Z,100044.28
2022-10-20T11:07:25.193Z,100048.47
2022-10-20T11:08:58.856Z,100054.19
2022-10-20T11:10:13.157Z,100052.25
2022-10-20T11:11:43.930Z,100054.69
2022-10-20T11:12:52.993Z,100044.31
2022-10-20T11:14:45.864Z,100044.44
2022-10-20T11:16:22.870Z,100045.34
2022-10-20T11:17:31.344Z,100052.06
2022-10-20T11:19:10.438Z,100052.13
2022-10-20T11:20:19.767Z,100047.34
2022-10-20T11:21:34.912Z,100050.91
2022-10-20T11:22:40.153Z,100055.31
2022-10-20T11:23:45.171Z,100061.91
2022-10-20T11:25:06.341Z,100056.03
2022-10-20T11:26:29.112Z,100059.78
2022-10-20T11:27:36.017Z,100057.00
2022-10-20T11:28:53.776Z,100054.00
2022-10-20T11:30:20.025Z,100058.22
2022-10-20T11:31:51.335Z,100058.28
2022-10-20T11:33:27.053Z,100058.28
2022-10-20T11:34:55.828Z,100062.25
2022-10-20T11:36:03.863Z,100061.41
2022-10-20T11:37:30.212Z,100062.47
2022-10-20T11:39:01.635Z,100061.75
2022-10-20T11:40:16.490Z,100063.00
2022-10-20T11:41:39.658Z,100068.16
2022-10-20T11:43:14.787Z,100060.84
2022-10-20T11:44:40.978Z,100058.50
2022-10-20T11:46:26.893Z,100061.53
2022-10-20T11:47:39.577Z,100065.88
2022-10-20T11:48:51.964Z,100062.47
2022-10-20T11:49:54.503Z,100063.81
2022-10-20T11:51:34.651Z,100062.91
2022-10-20T11:53:02.060Z,100064.81
2022-10-20T11:54:25.707Z,100069.59
2022-10-20T11:55:58.224Z,100060.66
2022-10-20T11:57:13.049Z,100059.53
2022-10-20T11:58:41.553Z,100060.03
2022-10-20T12:00:02.526Z,100068.19
2022-10-20T12:01:33.436Z,100059.81
2022-10-20T12:02:53.796Z,100062.91
2022-10-20T12:04:14.429Z,100064.22
2022-10-20T12:06:04.186Z,100062.16
2022-10-20T12:07:29.024Z,100076.47
2022-10-20T12:08:56.359Z,100069.09
2022-10-20T12:10:07.095Z,100068.41
2022-10-20T12:11:38.300Z,100068.78
2022-10-20T12:12:54.517Z,100069.69
2022-10-20T12:14:08.885Z,100075.53
2022-10-20T12:15:23.588Z,100065.28
2022-10-20T12:16:54.774Z,100064.53
2022-10-20T12:18:07.317Z,100074.88
2022-10-20T12:19:23.963Z,100071.03
2022-10-20T12:20:26.022Z,100077.97
2022-10-20T12:22:07.164Z,100078.47
2022-10-20T12:23:45.775Z,100073.19
2022-10-20T12:24:54.531Z,100075.63
2022-10-20T12:25:57.897Z,100080.34
2022-10-20T12:27:08.673Z,100078.41
2022-10-20T12:28:23.009Z,100089.22
2022-10-20T12:29:31.231Z,100079.78
2022-10-20T12:30:40.488Z,100084.94
2022-10-20T12:32:21.890Z,100082.50
2022-10-20T12:33:49.898Z,100082.19
2022-10-20T12:34:54.642Z,100086.44
2022-10-20T12:36:15.625Z,100082.38
2022-10-20T12:37:19.988Z,100083.69
2022-10-20T12:38:23.799Z,100088.09
2022-10-20T12:39:31.060Z,100082.13
2022-10-20T12:40:33.504Z,100094.75
2022-10-20T12:41:42.154Z,100093.53
2022-10-20T12:42:52.488Z,100085.28
2022-10-20T12:44:01.808Z,100091.16
2022-10-20T12:45:03.892Z,100096.38
2022-10-20T12:46:12.820Z,100088.41
2022-10-20T12:47:23.992Z,100093.94
2022-10-20T12:48:27.125Z,100087.91
2022-10-20T12:49:41.681Z,100091.69
2022-10-20T12:50:49.129Z,100089.69
2022-10-20T12:51:54.628Z,100088.41
2022-10-20T12:53:08.840Z,100090.97
2022-10-20T12:54:44.882Z,100095.16
2022-10-20T12:56:09.676Z,100098.31
2022-10-20T12:57:41.921Z,100098.75
2022-10-20T12:59:20.088Z,100099.78
2022-10-20T13:00:22.796Z,100097.34
2022-10-20T13:01:29.406Z,100104.00
2022-10-20T13:02:33.687Z,100098.03
2022-10-20T13:03:40.689Z,100100.03
2022-10-20T13:04:57.990Z,100098.84
2022-10-20T13:06:00.923Z,100105.84
2022-10-20T13:07:03.734Z,100106.41
2022-10-20T13:08:23.049Z,100107.13
2022-10-20T13:09:25.323Z,100101.00
2022-10-20T13:10:30.270Z,100104.06
2022-10-20T13:11:41.638Z,100104.69
2022-10-20T13:12:44.177Z,100114.19
2022-10-20T13:14:01.487Z,100111.03
2022-10-20T13:15:13.383Z,100108.22
2022-10-20T13:16:20.475Z,100104.09
2022-10-20T13:17:51.398Z,100101.41
2022-10-20T13:18:53.995Z,100115.13
2022-10-20T13:20:15.869Z,100112.09
2022-10-20T13:21:29.904Z,100117.81
2022-10-20T13:22:41.349Z,100112.38
2022-10-20T13:23:48.173Z,100116.00
2022-10-20T13:24:53.603Z,100110.28
2022-10-20T13:26:17.440Z,100103.03
2022-10-20T13:27:24.415Z,100104.03
2022-10-20T13:28:29.557Z,100104.03
2022-10-20T13:29:43.821Z,100109.06
2022-10-20T13:31:22.680Z,100120.78
2022-10-20T13:32:31.815Z,100119.63
2022-10-20T13:34:06.287Z,100117.53
2022-10-20T13:35:20.131Z,100124.56
2022-10-20T13:36:38.223Z,100119.06
2022-10-20T13:37:57.354Z,100122.34
2022-10-20T13:39:09.318Z,100117.84
2022-10-20T13:40:24.042Z,100121.78
2022-10-20T13:41:43.405Z,100125.69
2022-10-20T13:43:24.957Z,100118.25
2022-10-20T13:45:09.508Z,100127.25
2022-10-20T13:46:23.489Z,100130.53
2022-10-20T13:47:48.637Z,100129.66
2022-10-20T13:49:16.730Z,100138.38
2022-10-20T13:50:23.530Z,100126.28
2022-10-20T13:51:29.398Z,100128.69
2022-10-20T13:52:45.170Z,100136.13
2022-10-20T13:53:51.848Z,100139.06
2022-10-20T13:54:54.068Z,100133.56
2022-10-20T13:56:02.407Z,100129.03
2022-10-20T13:57:05.707Z,100139.63
2022-10-20T13:58:17.665Z,100138.03
2022-10-20T14:00:33.694Z,100142.72
2022-10-20T14:01:36.828Z,100145.03
2022-10-20T14:02:39.873Z,100144.22
2022-10-20T14:03:44.525Z,100138.63
2022-10-20T14:04:46.646Z,100149.13
2022-10-20T14:05:49.761Z,100141.75
2022-10-20T14:06:53.512Z,100142.97
2022-10-20T14:08:00.818Z,100146.38
2022-10-20T14:09:21.952Z,100150.44
2022-10-20T14:10:44.144Z,100142.19
2022-10-20T14:11:53.295Z,100144.22
2022-10-20T14:12:56.859Z,100143.25
2022-10-20T14:14:01.569Z,100142.63
2022-10-20T14:15:06.653Z,100148.13
2022-10-20T14:16:18.782Z,100142.97
2022-10-20T14:17:24.480Z,100141.56
2022-10-20T14:18:32.081Z,100146.28
2022-10-20T14:19:35.484Z,100146.19
2022-10-20T14:20:38.998Z,100145.47
2022-10-20T14:21:49.834Z,100150.09
2022-10-20T14:22:55.218Z,100143.72
2022-10-20T14:24:02.973Z,100143.81
2022-10-20T14:25:09.018Z,100143.44
2022-10-20T14:26:17.270Z,100143.81
2022-10-20T14:27:30.429Z,100134.22
2022-10-20T14:28:35.775Z,100130.16
2022-10-20T14:29:40.123Z,100136.44
2022-10-20T14:30:42.424Z,100134.84
2022-10-20T14:31:47.858Z,100134.56
2022-10-20T14:32:51.307Z,100128.66
2022-10-20T14:33:53.846Z,100131.63
2022-10-20T14:35:01.360Z,100135.91
2022-10-20T14:36:04.911Z,100136.97
2022-10-20T14:37:18.139Z,100141.16
2022-10-20T14:38:30.664Z,100139.63
2022-10-20T14:39:41.429Z,100146.19
2022-10-20T14:40:51.753Z,100147.78
2022-10-20T14:41:59.126Z,100152.47
2022-10-20T14:43:27.223Z,100150.25
2022-10-20T14:44:31.727Z,100154.69
2022-10-20T14:45:34.699Z,100150.59
2022-10-20T14:46:41.729Z,100158.59
2022-10-20T14:47:45.643Z,100151.94
2022-10-20T14:48:50.702Z,100153.78
2022-10-20T14:49:55.168Z,100147.97
2022-10-20T14:50:57.422Z,100156.09
2022-10-20T14:52:25.894Z,100154.94
2022-10-20T14:53:33.541Z,100146.78
2022-10-20T14:54:54.126Z,100151.56
2022-10-20T14:56:02.788Z,100155.19
2022-10-20T14:57:07.911Z,100155.91